Mysore Airport

Current Flights

Departures
Number Departure To Airline
 2T538 20:10  Chennai  TruJet
 TRJ538 20:10  Chennai  TruJet
 9I540 12:00  Bangalore  Alliance Air
 CD540 12:00  Bangalore  Alliance Air
 TRJ538 20:10  Chennai  TruJet
Arrivals
Number Arrival From Airline
 TRJ537 19:50  Chennai  TruJet
 2T537 19:50  Chennai  TruJet
 9I539 11:25  Bangalore  Alliance Air
 TRJ537 19:50  Chennai  TruJet
Info
Name: Mysore Airport
Identifier:  MYQ/VOMY
Local Time:  18. Jun 10:22
City
Mysore
  India

Flights per Day
4 flights
Distance: 274km (170mi)
Punctuality
75% (1 flights per day delayed)
Delay Average: 7 minutes
Current Weather
 26 C (Humidity: 73%)
  12kt (22km/h / 13mph) from 260°
  8km (4 mi.)
 METAR VOMY 171500Z 26012KT 8000 NSC 26/21 Q1014

Current Delays

Departures
N/A
Arrivals
N/A

Destinations

Top Destinations
Airport Flights
per week
Seats
per week
  Chennai (MAA) 5 299 0 42
  Bangalore (BLR) 4 163 0 23

Airlines & Planes

Top Airlines
Airline Flights
per Day
Seats
per Day
  TruJet 0 42
  Alliance Air 0 23
Top Plane Types
Model Flights Seats
ATR 76-600 0.7/day 23/day 23.333333333333332
ATR 76-500 0.6/day 42/day 42.8